Time;durP1;ratioP1;P1;durP2;ratioP2;P2;SDS_P1;SDS_P2;PMS_P1;PMS_P2;Temp;Humidity;BMP_temperature;BMP_pressure;BME280_temperature;BME280_humidity;BME280_pressure;Samples;Min_cycle;Max_cycle;Signal;HPM_P1;HPM_P2
2022/01/19 08:49:45;;;;;;;17.60;9.88;;;;;;;3.39;85.06;101527.42;1648439;84;21111;-78
2022/01/19 08:52:11;;;;;;;25.62;10.58;;;;;;;3.43;85.04;101515.75;1647540;86;21007;-77
2022/01/19 08:54:37;;;;;;;20.27;9.65;;;;;;;3.50;85.01;101510.45;1621669;87;21653;-76
2022/01/19 08:57:04;;;;;;;30.57;12.28;;;;;;;3.53;84.99;101516.00;1623535;87;21045;-76
2022/01/19 08:59:31;;;;;;;36.95;15.35;;;;;;;3.55;84.99;101514.13;1621900;87;21280;-77
2022/01/19 09:01:57;;;;;;;28.95;13.62;;;;;;;3.57;84.95;101507.42;1623374;87;21095;-76
2022/01/19 09:04:24;;;;;;;44.15;18.00;;;;;;;3.60;84.89;101502.80;1627099;87;21572;-75
2022/01/19 09:06:50;;;;;;;38.95;17.00;;;;;;;3.66;84.88;101504.22;1625464;87;21023;-75
2022/01/19 09:09:16;;;;;;;22.25;8.48;;;;;;;3.69;84.82;101494.78;1615848;87;21142;-75
2022/01/19 09:11:47;;;;;;;37.48;14.70;;;;;;;3.73;84.80;101493.64;1614394;88;21160;-75
2022/01/19 09:14:10;;;;;;;41.55;18.25;;;;;;;3.78;84.79;101484.47;1611900;88;21071;-74
2022/01/19 09:16:37;;;;;;;34.18;14.55;;;;;;;3.80;84.76;101486.52;1613782;88;21110;-75
2022/01/19 09:19:03;;;;;;;22.50;12.30;;;;;;;3.81;84.70;101486.05;1600069;88;21702;-75
2022/01/19 09:21:29;;;;;;;29.87;14.23;;;;;;;3.82;84.66;101482.48;1610491;88;21039;-75
2022/01/19 09:23:55;;;;;;;22.45;12.35;;;;;;;3.87;84.61;101479.08;1612955;88;21201;-74
2022/01/19 09:26:21;;;;;;;23.15;11.30;;;;;;;3.88;84.56;101474.16;1613393;88;21031;-75
2022/01/19 09:28:47;;;;;;;14.53;8.75;;;;;;;3.91;84.53;101476.58;1611734;88;20936;-71
2022/01/19 09:31:16;;;;;;;12.75;8.25;;;;;;;3.96;84.49;101475.82;1609879;88;20960;-71
2022/01/19 09:33:43;;;;;;;11.22;7.10;;;;;;;4.01;84.42;101464.50;1614232;88;21092;-71
2022/01/19 09:36:29;;;;;;;15.43;8.20;;;;;;;4.03;84.37;101466.55;1609542;88;21637;-72
2022/01/19 09:38:38;;;;;;;16.50;9.15;;;;;;;4.05;84.31;101465.96;1558375;91;21136;-72
2022/01/19 09:41:07;;;;;;;20.65;9.10;;;;;;;4.06;84.25;101465.02;1611812;88;21051;-71
2022/01/19 09:43:33;;;;;;;15.23;9.20;;;;;;;4.08;84.21;101456.55;1613973;88;21613;-71
2022/01/19 09:45:59;;;;;;;17.10;10.80;;;;;;;4.08;84.17;101459.66;1600443;88;21087;-71
2022/01/19 09:48:26;;;;;;;15.38;9.28;;;;;;;4.13;84.11;101457.53;1618213;87;21429;-71
2022/01/19 09:50:54;;;;;;;19.25;10.98;;;;;;;4.14;84.05;101454.81;1630390;87;21058;-71
2022/01/19 09:53:20;;;;;;;19.17;8.80;;;;;;;4.15;84.00;101443.28;1630729;86;21157;-71
2022/01/19 09:55:47;;;;;;;20.48;12.85;;;;;;;4.16;83.92;101439.70;1629685;87;21058;-72
2022/01/19 09:58:13;;;;;;;15.83;9.53;;;;;;;4.19;83.88;101433.36;1618063;87;21082;-71
2022/01/19 10:00:39;;;;;;;33.53;16.30;;;;;;;4.23;83.82;101444.94;1610339;87;21104;-72
2022/01/19 10:03:21;;;;;;;27.13;15.95;;;;;;;4.29;83.78;101441.88;1632834;86;20939;-72
2022/01/19 10:06:07;;;;;;;15.63;8.63;;;;;;;4.36;83.70;101437.86;1633718;87;21034;-71
2022/01/19 10:08:41;;;;;;;13.88;8.73;;;;;;;4.36;83.60;101430.45;1633218;87;21031;-72
2022/01/19 10:16:59;;;;;;;20.60;11.05;;;;;;;4.28;83.34;101416.44;1632922;87;21522;-72
2022/01/19 10:19:38;;;;;;;18.07;8.05;;;;;;;4.29;83.27;101398.31;1633758;86;21114;-72
2022/01/19 10:22:14;;;;;;;16.48;8.65;;;;;;;4.28;83.17;101389.19;1633604;87;21068;-73
2022/01/19 10:24:53;;;;;;;18.57;10.60;;;;;;;4.31;83.10;101383.22;1633497;87;21539;-72
2022/01/19 10:27:35;;;;;;;25.90;9.98;;;;;;;4.38;83.03;101379.68;1633633;86;21160;-72
2022/01/19 10:30:09;;;;;;;17.55;8.55;;;;;;;4.44;82.96;101376.13;1633607;87;21552;-72
2022/01/19 10:32:49;;;;;;;21.12;10.00;;;;;;;4.51;82.93;101374.75;1633574;87;21043;-71
2022/01/19 10:35:32;;;;;;;19.02;10.78;;;;;;;4.50;82.89;101369.59;1633801;87;21086;-72
2022/01/19 10:38:25;;;;;;;23.05;14.40;;;;;;;4.52;82.81;101361.92;1633339;86;21043;-72
2022/01/19 10:41:02;;;;;;;19.55;10.53;;;;;;;4.62;82.76;101368.72;1633495;87;21085;-72
2022/01/19 10:43:41;;;;;;;18.67;9.65;;;;;;;4.71;82.68;101363.27;1633547;87;21518;-72
2022/01/19 10:46:29;;;;;;;16.17;9.28;;;;;;;4.75;82.62;101359.47;1633441;87;21110;-72
2022/01/19 10:49:05;;;;;;;16.87;8.75;;;;;;;4.79;82.52;101362.23;1628856;87;21048;-72
2022/01/19 10:51:39;;;;;;;12.65;7.92;;;;;;;4.76;82.45;101351.88;1619484;88;21044;-72
2022/01/19 10:54:21;;;;;;;11.18;7.25;;;;;;;4.74;82.35;101353.80;1615323;88;21136;-72
2022/01/19 10:56:54;;;;;;;15.75;8.93;;;;;;;4.79;82.28;101352.51;1594102;90;21031;-72
2022/01/19 10:59:19;;;;;;;13.30;7.37;;;;;;;4.85;82.24;101345.96;1593885;90;21035;-72
2022/01/19 11:01:55;;;;;;;19.02;8.50;;;;;;;4.86;82.15;101335.73;1594302;90;21027;-72
2022/01/19 11:04:33;;;;;;;14.75;8.40;;;;;;;4.87;82.10;101329.03;1594197;90;21503;-72
2022/01/19 11:07:05;;;;;;;23.52;11.88;;;;;;;4.90;82.01;101333.24;1594040;90;21353;-72
2022/01/19 11:09:34;;;;;;;26.45;13.43;;;;;;;4.96;81.94;101330.18;1594046;90;21083;-72
2022/01/19 11:12:05;;;;;;;33.60;15.88;;;;;;;5.01;81.90;101320.09;1594067;90;21043;-72
2022/01/19 11:14:32;;;;;;;32.78;16.62;;;;;;;5.07;81.82;101319.64;1594179;89;21572;-72
2022/01/19 11:16:58;;;;;;;19.02;10.05;;;;;;;5.12;81.77;101316.20;1594136;90;21086;-72
2022/01/19 11:19:24;;;;;;;18.55;8.23;;;;;;;5.16;81.66;101304.92;1594255;90;21205;-72
2022/01/19 11:21:58;;;;;;;12.55;8.50;;;;;;;5.12;81.61;101300.33;1594009;90;21075;-72
2022/01/19 11:24:45;;;;;;;14.38;9.25;;;;;;;5.10;81.53;101299.62;1594018;90;21059;-72
2022/01/19 11:27:11;;;;;;;27.35;14.68;;;;;;;5.14;81.48;101294.45;1593944;89;21099;-72
2022/01/19 11:29:38;;;;;;;17.80;8.98;;;;;;;5.16;81.39;101284.61;1593912;90;21042;-72
2022/01/19 11:32:17;;;;;;;15.28;9.23;;;;;;;5.16;81.31;101268.75;1594364;88;21629;-72
2022/01/19 11:34:50;;;;;;;24.02;11.57;;;;;;;5.16;81.27;101260.82;1593753;90;21160;-72
2022/01/19 11:37:39;;;;;;;16.82;8.73;;;;;;;5.14;81.17;101254.78;1594001;90;21107;-72
2022/01/19 11:40:11;;;;;;;21.55;9.70;;;;;;;5.17;81.05;101241.84;1589699;90;21147;-72
2022/01/19 11:42:38;;;;;;;20.00;10.98;;;;;;;5.21;80.97;101241.95;1593071;90;21026;-72
2022/01/19 11:45:10;;;;;;;21.73;10.45;;;;;;;5.26;80.90;101235.84;1594188;90;21330;-72
2022/01/19 11:47:38;;;;;;;19.57;10.10;;;;;;;5.31;80.85;101230.56;1593852;90;21027;-72
2022/01/19 11:50:07;;;;;;;16.97;8.10;;;;;;;5.36;80.78;101228.42;1599728;89;21110;-72
2022/01/19 11:52:40;;;;;;;18.70;10.50;;;;;;;;;;1614489;86;20994;-71
2022/01/19 11:55:24;;;;;;;13.68;7.12;;;;;;;5.42;80.62;101220.02;1628660;87;21046;-72
2022/01/19 11:58:13;;;;;;;11.90;7.37;;;;;;;5.44;80.53;101211.50;1628751;88;21131;-72
2022/01/19 12:00:40;;;;;;;10.48;7.47;;;;;;;5.45;80.46;101209.20;1628616;88;21030;-72
2022/01/19 12:03:22;;;;;;;14.30;8.88;;;;;;;5.47;80.39;101204.66;1628679;88;21573;-72
2022/01/19 12:05:51;;;;;;;14.53;9.10;;;;;;;5.51;80.28;101196.84;1628734;88;21054;-72
2022/01/19 12:08:34;;;;;;;13.53;8.50;;;;;;;5.51;80.15;101184.95;1628496;88;21023;-72
2022/01/19 12:11:17;;;;;;;13.68;8.33;;;;;;;5.47;80.02;101178.67;1628803;88;21148;-72
2022/01/19 12:16:49;;;;;;;13.78;8.40;;;;;;;5.54;79.84;101166.66;1609194;88;21031;-71
2022/01/19 12:19:12;;;;;;;16.80;7.60;;;;;;;5.58;79.71;101161.50;1628697;88;21027;-72
2022/01/19 12:21:53;;;;;;;16.15;8.38;;;;;;;5.59;79.59;101154.41;1611582;88;21043;-72
2022/01/19 12:24:36;;;;;;;9.28;5.47;;;;;;;5.57;79.49;101149.70;1628126;87;21844;-72
2022/01/19 12:27:20;;;;;;;14.87;7.58;;;;;;;5.63;79.40;101142.13;1628764;88;21488;-72
2022/01/19 12:30:01;;;;;;;23.18;10.85;;;;;;;5.76;79.33;101135.40;1628673;88;21059;-72
2022/01/19 12:32:35;;;;;;;20.32;10.90;;;;;;;5.84;79.24;101120.58;1619379;87;21110;-72
2022/01/19 12:35:10;;;;;;;17.57;10.72;;;;;;;5.89;79.12;101110.99;1628728;87;21043;-72
2022/01/19 12:37:41;;;;;;;16.37;9.80;;;;;;;5.86;78.95;101103.30;1628671;88;21136;-72
2022/01/19 12:40:27;;;;;;;29.45;12.63;;;;;;;5.80;78.83;101093.18;1628178;86;21031;-73
2022/01/19 12:42:57;;;;;;;16.85;11.40;;;;;;;5.74;78.71;101081.73;1628278;88;21034;-72
2022/01/19 12:45:31;;;;;;;16.80;11.35;;;;;;;5.76;78.62;101077.18;1627766;87;20999;-72
2022/01/19 12:48:05;;;;;;;17.85;11.53;;;;;;;5.78;78.54;101065.50;1628541;88;21098;-72
2022/01/19 12:50:46;;;;;;;15.28;10.25;;;;;;;5.79;78.45;101061.90;1618770;88;21223;-72
2022/01/19 12:53:17;;;;;;;24.32;13.45;;;;;;;5.85;78.36;101053.94;1614860;87;21071;-72
2022/01/19 12:55:49;;;;;;;20.15;13.20;;;;;;;5.88;78.29;101039.16;1614749;88;21027;-72
2022/01/19 12:58:21;;;;;;;18.73;12.90;;;;;;;5.90;78.20;101022.21;1615512;88;21000;-72
2022/01/19 13:00:50;;;;;;;26.73;15.28;;;;;;;5.89;78.10;101021.00;1613585;87;21100;-72
2022/01/19 13:03:29;;;;;;;22.77;13.50;;;;;;;5.90;78.04;101018.72;1615598;88;21161;-72
2022/01/19 13:06:02;;;;;;;19.62;13.48;;;;;;;5.92;77.96;101007.03;1614184;88;21504;-72
2022/01/19 13:08:36;;;;;;;22.07;14.47;;;;;;;5.89;77.84;101003.80;1615216;88;21059;-73
2022/01/19 13:11:24;;;;;;;21.48;9.30;;;;;;;5.89;77.79;100995.85;1599696;88;21040;-73
2022/01/19 13:13:58;;;;;;;10.75;7.80;;;;;;;5.90;77.75;101002.36;1614888;88;21099;-72
2022/01/19 13:16:28;;;;;;;18.10;8.80;;;;;;;5.90;77.64;100997.55;1615335;88;21290;-72
2022/01/19 13:18:54;;;;;;;14.40;9.73;;;;;;;5.91;77.57;100996.59;1615452;88;21477;-72
2022/01/19 13:21:21;;;;;;;15.98;9.78;;;;;;;5.93;77.51;100992.00;1576854;88;21051;-72
2022/01/19 13:24:06;;;;;;;15.23;9.18;;;;;;;5.95;77.43;100987.40;1615425;88;21067;-72
2022/01/19 13:26:39;;;;;;;19.42;12.05;;;;;;;5.90;77.37;100976.37;1614987;88;21032;-72
2022/01/19 13:29:18;;;;;;;21.05;12.78;;;;;;;5.87;77.30;100976.63;1615422;88;21971;-72
2022/01/19 13:32:05;;;;;;;;;;;;;;;5.81;77.18;100977.91;1615574;87;21033;-72
2022/01/19 13:34:36;;;;;;;28.62;17.15;;;;;;;5.75;77.11;100964.34;1615084;88;20156;-72
2022/01/19 13:37:03;;;;;;;32.67;19.90;;;;;;;5.70;77.01;100958.61;1613607;88;21023;-72
2022/01/19 13:39:32;;;;;;;25.37;18.87;;;;;;;5.67;76.91;100949.09;1615149;88;21039;-72
2022/01/19 13:41:59;;;;;;;23.65;15.68;;;;;;;5.63;76.80;100950.30;1615231;88;22039;-72
2022/01/19 13:44:36;;;;;;;36.33;22.17;;;;;;;5.60;76.72;100949.23;1615092;88;21019;-72
2022/01/19 13:47:09;;;;;;;35.35;16.02;;;;;;;5.60;76.68;100940.45;1614891;88;21102;-72
2022/01/19 13:49:34;;;;;;;52.65;22.25;;;;;;;5.62;76.62;100937.22;1570637;89;21113;-72
2022/01/19 13:52:00;;;;;;;19.00;10.55;;;;;;;5.59;76.55;100936.14;1575050;91;21069;-72
2022/01/19 13:54:27;;;;;;;24.40;10.32;;;;;;;5.55;76.50;100928.94;1575181;89;22243;-72
2022/01/19 13:56:59;;;;;;;15.28;10.03;;;;;;;5.50;76.47;100934.59;1575340;91;21078;-72
2022/01/19 13:59:25;;;;;;;14.40;8.65;;;;;;;5.46;76.37;100923.91;1575370;91;21153;-72
2022/01/19 14:02:01;;;;;;;24.07;12.33;;;;;;;5.46;76.33;100923.05;1575209;91;21057;-72
2022/01/19 14:04:31;;;;;;;31.15;14.07;;;;;;;5.45;76.29;100920.08;1575474;91;21109;-72
2022/01/19 14:07:10;;;;;;;39.80;16.32;;;;;;;5.44;76.27;100911.30;1575502;91;21176;-72
2022/01/19 14:09:35;;;;;;;39.18;16.30;;;;;;;5.43;76.24;100906.96;1575377;91;21078;-72
2022/01/19 14:12:11;;;;;;;46.95;20.65;;;;;;;5.42;76.23;100898.66;1575560;91;21081;-72
2022/01/19 14:14:43;;;;;;;87.92;33.02;;;;;;;5.41;76.20;100894.36;1575342;91;21165;-72
2022/01/19 14:17:12;;;;;;;67.82;24.98;;;;;;;5.39;76.18;100894.95;1574102;91;21566;-72
2022/01/19 14:19:44;;;;;;;69.58;27.67;;;;;;;5.37;76.19;100892.92;1575422;90;21701;-72
2022/01/19 14:22:25;;;;;;;114.92;38.78;;;;;;;5.34;76.17;100887.89;1575337;91;21882;-72
2022/01/19 14:25:02;;;;;;;108.80;35.13;;;;;;;5.28;76.15;100878.27;1573096;91;21069;-72
2022/01/19 14:27:33;;;;;;;102.60;33.33;;;;;;;5.21;76.16;100871.31;1575133;91;21165;-72
2022/01/19 14:30:10;;;;;;;101.65;34.30;;;;;;;5.16;76.16;100856.33;1575501;91;21073;-72
2022/01/19 14:32:55;;;;;;;66.67;22.67;;;;;;;5.15;76.14;100855.11;1575437;91;21209;-72
2022/01/19 14:35:31;;;;;;;74.80;26.90;;;;;;;5.10;76.16;100848.89;1575152;89;21057;-71
2022/01/19 14:38:28;;;;;;;73.45;27.65;;;;;;;5.03;76.14;100845.07;1575370;89;21676;-71
2022/01/19 14:41:00;;;;;;;53.28;21.77;;;;;;;4.96;76.16;100838.59;1575512;91;21061;-72
2022/01/19 14:43:43;;;;;;;81.85;31.45;;;;;;;4.88;76.17;100840.53;1575318;91;21069;-71
2022/01/19 14:46:11;;;;;;;105.85;40.78;;;;;;;4.81;76.17;100833.21;1575323;91;21121;-71
2022/01/19 14:48:46;;;;;;;103.65;45.90;;;;;;;4.72;76.16;100822.03;1575137;90;21070;-71
2022/01/19 14:51:25;;;;;;;97.85;45.63;;;;;;;4.65;76.17;100815.08;1570879;91;21649;-71
2022/01/19 14:54:04;;;;;;;120.80;56.33;;;;;;;4.61;76.18;100816.79;1614900;87;21549;-71
2022/01/19 14:56:30;;;;;;;100.10;47.85;;;;;;;4.56;76.23;100803.09;1612828;87;21059;-72
2022/01/19 14:59:07;;;;;;;95.03;43.90;;;;;;;4.51;76.25;100790.25;1615316;87;21670;-71
2022/01/19 15:01:34;;;;;;;72.85;36.15;;;;;;;4.48;76.30;100785.21;1615171;88;21016;-72
2022/01/19 15:04:02;;;;;;;97.55;49.33;;;;;;;4.42;76.34;100782.59;1615234;88;21044;-72
2022/01/19 15:06:28;;;;;;;83.37;46.35;;;;;;;4.36;76.37;100782.23;1615189;87;21099;-72
2022/01/19 15:08:54;;;;;;;68.60;30.82;;;;;;;4.31;76.42;100769.39;1615249;87;21083;-72
2022/01/19 15:11:21;;;;;;;41.28;19.80;;;;;;;4.25;76.47;100764.61;1615197;88;21563;-71
2022/01/19 15:13:48;;;;;;;39.73;20.65;;;;;;;4.19;76.53;100763.74;1615179;88;21063;-72
2022/01/19 15:16:15;;;;;;;54.45;26.95;;;;;;;4.12;76.54;100766.50;1615374;88;21048;-72
2022/01/19 15:18:42;;;;;;;89.72;44.93;;;;;;;4.01;76.57;100757.29;1615178;88;21667;-72
2022/01/19 15:21:08;;;;;;;85.12;41.92;;;;;;;3.90;76.61;100744.92;1615282;88;21074;-71
2022/01/19 15:23:34;;;;;;;122.05;52.58;;;;;;;3.80;76.64;100743.13;1615254;88;21171;-71
2022/01/19 15:26:00;;;;;;;177.20;79.53;;;;;;;3.70;76.71;100736.84;1614936;88;21079;-71
2022/01/19 15:28:26;;;;;;;144.00;63.95;;;;;;;3.59;76.74;100728.94;1615359;88;21079;-72
2022/01/19 15:30:53;;;;;;;139.30;65.42;;;;;;;3.51;76.79;100731.69;1615367;87;21072;-71
2022/01/19 15:33:20;;;;;;;159.63;80.80;;;;;;;3.41;76.81;100712.73;1615374;87;21063;-71
2022/01/19 15:35:48;;;;;;;113.77;56.88;;;;;;;3.32;76.85;100703.70;1615101;87;21142;-71
2022/01/19 15:38:15;;;;;;;108.03;54.18;;;;;;;3.27;76.92;100697.93;1615245;87;20977;-71
2022/01/19 15:40:41;;;;;;;169.57;67.03;;;;;;;3.22;76.96;100706.69;1614994;88;21028;-71
2022/01/19 15:43:09;;;;;;;238.55;93.62;;;;;;;3.15;77.01;100709.42;1615440;88;21043;-71
2022/01/19 15:45:36;;;;;;;393.30;152.43;;;;;;;3.09;77.07;100703.30;1615072;88;21039;-71
2022/01/19 15:48:04;;;;;;;265.92;98.27;;;;;;;3.04;77.13;100709.38;1598827;88;21491;-71
2022/01/19 15:50:32;;;;;;;194.67;76.30;;;;;;;2.94;77.19;100706.59;1613621;87;21634;-71
2022/01/19 15:52:58;;;;;;;153.10;62.80;;;;;;;2.90;77.26;100712.19;1610125;88;21088;-71
2022/01/19 15:55:24;;;;;;;199.17;76.47;;;;;;;2.83;77.29;100714.44;1619166;88;21028;-71
2022/01/19 15:57:50;;;;;;;158.30;64.77;;;;;;;2.76;77.34;100715.00;1618928;88;20948;-71
2022/01/19 16:00:16;;;;;;;182.25;68.30;;;;;;;2.71;77.40;100707.42;1619080;88;21126;-71
2022/01/19 16:02:43;;;;;;;149.97;60.65;;;;;;;2.65;77.42;100693.41;1619160;87;21006;-71
2022/01/19 16:05:09;;;;;;;132.45;58.25;;;;;;;2.60;77.44;100688.13;1610158;88;21096;-71
2022/01/19 16:07:35;;;;;;;108.17;46.65;;;;;;;2.57;77.45;100681.77;1610443;89;21007;-71
2022/01/19 16:10:02;;;;;;;73.60;26.48;;;;;;;2.53;77.49;100683.28;1610158;88;21040;-71
2022/01/19 16:12:28;;;;;;;49.93;21.45;;;;;;;2.51;77.50;100682.56;1610394;89;21152;-71
2022/01/19 16:14:54;;;;;;;35.68;16.95;;;;;;;2.48;77.48;100680.16;1610311;89;21027;-71
2022/01/19 16:17:20;;;;;;;43.83;19.92;;;;;;;2.44;77.51;100683.97;1610443;88;21091;-71
2022/01/19 16:19:46;;;;;;;72.45;23.75;;;;;;;2.41;77.53;100678.09;1610259;89;20992;-71
2022/01/19 16:26:06;;;;;;;98.87;33.30;;;;;;;2.39;77.55;100678.18;1619192;88;20912;-71
2022/01/19 16:27:16;;;;;;;63.75;23.47;;;;;;;2.34;77.58;100661.91;1600734;88;21023;-71
2022/01/19 16:29:42;;;;;;;37.95;17.80;;;;;;;2.30;77.62;100663.07;1610495;89;21127;-71
2022/01/19 16:32:08;;;;;;;57.48;23.20;;;;;;;2.28;77.65;100656.25;1619010;88;21559;-71
2022/01/19 16:34:34;;;;;;;85.65;33.98;;;;;;;2.26;77.66;100647.61;1610215;89;21044;-71
2022/01/19 16:37:02;;;;;;;210.45;75.47;;;;;;;2.25;77.66;100644.13;1610028;88;21096;-71
2022/01/19 16:39:29;;;;;;;158.60;60.60;;;;;;;2.23;77.70;100639.47;1610383;89;21044;-71
2022/01/19 16:42:00;;;;;;;108.05;39.70;;;;;;;2.20;77.70;100635.75;1619169;87;21054;-71
2022/01/19 16:44:26;;;;;;;83.85;29.65;;;;;;;2.17;77.69;100627.23;1601327;88;22039;-71
2022/01/19 16:46:52;;;;;;;47.00;21.27;;;;;;;2.15;77.69;100635.23;1602649;88;21110;-71
2022/01/19 16:49:28;;;;;;;45.50;20.05;;;;;;;2.13;77.66;100633.20;1600816;87;21147;-71
2022/01/19 16:51:49;;;;;;;27.55;14.95;;;;;;;2.08;77.63;100626.09;1608586;85;21749;-70
2022/01/19 16:54:15;;;;;;;35.17;15.23;;;;;;;2.05;77.64;100622.38;1617529;87;21542;-70
2022/01/19 16:56:42;;;;;;;25.08;13.50;;;;;;;2.00;77.63;100621.89;1629073;87;21086;-71
2022/01/19 16:59:08;;;;;;;43.28;22.05;;;;;;;2.01;77.62;100626.17;1621028;86;21001;-71
2022/01/19 17:01:34;;;;;;;31.55;15.23;;;;;;;1.99;77.57;100624.14;1621468;87;21162;-70
2022/01/19 17:04:01;;;;;;;23.87;13.03;;;;;;;1.96;77.57;100616.47;1621824;86;21087;-70
2022/01/19 17:06:27;;;;;;;95.53;37.63;;;;;;;1.93;77.56;100611.44;1630382;87;21035;-71
2022/01/19 17:08:53;;;;;;;49.80;21.77;;;;;;;1.91;77.55;100602.80;1618821;87;21083;-71
2022/01/19 17:11:20;;;;;;;49.55;16.97;;;;;;;1.90;77.52;100593.26;1622556;87;20922;-70
2022/01/19 17:16:25;;;;;;;45.63;17.62;;;;;;;1.83;77.51;100582.81;1636846;87;21027;-70
2022/01/19 17:18:46;;;;;;;29.90;14.47;;;;;;;1.81;77.52;100574.18;1622641;87;21096;-70
2022/01/19 17:21:12;;;;;;;20.55;11.05;;;;;;;1.79;77.48;100573.46;1623252;87;21035;-71
2022/01/19 17:23:41;;;;;;;21.68;10.15;;;;;;;1.75;77.46;100564.11;1618923;87;21087;-70
2022/01/19 17:26:07;;;;;;;18.87;9.18;;;;;;;1.71;77.41;100566.59;1623804;86;21401;-70
2022/01/19 17:28:33;;;;;;;17.98;9.90;;;;;;;1.69;77.41;100565.87;1621628;86;21520;-71
2022/01/19 17:31:00;;;;;;;18.12;9.40;;;;;;;1.68;77.38;100564.19;1625387;87;21055;-71
2022/01/19 17:33:26;;;;;;;17.12;10.53;;;;;;;1.67;77.37;100563.34;1617234;87;21042;-71
2022/01/19 17:35:52;;;;;;;26.02;11.45;;;;;;;1.64;77.35;100554.83;1628466;87;21024;-70
2022/01/19 17:38:18;;;;;;;74.12;31.87;;;;;;;1.62;77.33;100558.87;1623287;87;21181;-71
2022/01/19 17:40:44;;;;;;;39.78;15.15;;;;;;;1.61;77.31;100568.20;1629159;87;21543;-70
2022/01/19 17:43:13;;;;;;;24.00;11.73;;;;;;;1.57;77.28;100558.84;1618212;87;21115;-71
2022/01/19 17:45:49;;;;;;;16.05;9.45;;;;;;;1.53;77.26;100563.48;1625141;87;21369;-71
2022/01/19 17:48:20;;;;;;;23.90;11.48;;;;;;;1.49;77.27;100568.11;1617716;87;21051;-71
2022/01/19 17:50:51;;;;;;;39.92;14.60;;;;;;;1.46;77.24;100562.23;1623388;86;21249;-70
2022/01/19 17:53:02;;;;;;;29.00;12.55;;;;;;;1.44;77.20;100556.26;1636528;85;20974;-70
2022/01/19 17:55:29;;;;;;;30.40;12.37;;;;;;;1.40;77.18;100556.10;1636544;86;21090;-70
2022/01/19 17:57:56;;;;;;;24.37;12.95;;;;;;;1.36;77.19;100558.11;1639615;86;21031;-71
2022/01/19 18:00:22;;;;;;;28.23;13.80;;;;;;;1.30;77.19;100554.57;1633393;86;21082;-71
2022/01/19 18:02:48;;;;;;;21.48;12.45;;;;;;;1.26;77.18;100555.76;1643957;86;21213;-71
2022/01/19 18:05:14;;;;;;;33.80;16.30;;;;;;;1.24;77.19;100550.22;1639064;86;21358;-71
2022/01/19 18:07:40;;;;;;;31.90;16.87;;;;;;;1.20;77.18;100560.11;1633374;86;21027;-71
2022/01/19 18:10:07;;;;;;;32.40;15.93;;;;;;;1.17;77.17;100549.81;1628755;86;21050;-71
2022/01/19 18:12:33;;;;;;;59.63;29.95;;;;;;;1.16;77.15;100544.19;1636629;86;21015;-71
2022/01/19 18:14:59;;;;;;;60.50;32.00;;;;;;;1.13;77.17;100541.78;1629810;86;21145;-70
2022/01/19 18:17:28;;;;;;;28.52;17.40;;;;;;;1.12;77.14;100545.37;1645134;86;21103;-70
2022/01/19 18:19:54;;;;;;;35.33;22.15;;;;;;;1.11;77.16;100538.44;1635303;86;21724;-71
2022/01/19 18:22:20;;;;;;;20.57;13.53;;;;;;;1.08;77.18;100533.40;1644508;86;22092;-70
2022/01/19 18:24:46;;;;;;;46.50;20.85;;;;;;;1.09;77.18;100529.80;1629317;86;21043;-70
2022/01/19 18:27:13;;;;;;;26.65;15.30;;;;;;;1.10;77.21;100529.33;1640019;86;21138;-71
2022/01/19 18:29:40;;;;;;;21.97;12.23;;;;;;;1.11;77.20;100526.62;1632117;86;21050;-70
2022/01/19 18:32:07;;;;;;;20.25;13.05;;;;;;;1.15;77.20;100520.67;1631079;85;21133;-70
2022/01/19 18:34:33;;;;;;;70.97;33.58;;;;;;;1.16;77.19;100523.17;1630654;86;21583;-70
2022/01/19 18:36:59;;;;;;;22.25;13.22;;;;;;;1.17;77.18;100516.98;1630715;86;21057;-70
2022/01/19 18:39:25;;;;;;;26.68;14.95;;;;;;;1.18;77.20;100512.11;1645318;86;21769;-70
2022/01/19 18:41:52;;;;;;;21.05;12.30;;;;;;;1.17;77.21;100507.80;1636280;86;21063;-69
2022/01/19 18:44:18;;;;;;;19.87;13.55;;;;;;;1.15;77.22;100506.23;1638996;86;21086;-71
2022/01/19 18:46:45;;;;;;;23.15;13.18;;;;;;;1.13;77.22;100502.86;1637130;86;21642;-70
2022/01/19 18:49:11;;;;;;;19.82;11.22;;;;;;;1.09;77.21;100487.79;1631987;86;21082;-70
2022/01/19 18:51:37;;;;;;;26.48;13.78;;;;;;;1.07;77.21;100485.76;1638782;86;21205;-70
2022/01/19 18:54:04;;;;;;;20.10;11.68;;;;;;;1.08;77.23;100472.16;1649178;85;21086;-70
2022/01/19 18:56:30;;;;;;;21.70;12.28;;;;;;;1.09;77.24;100461.53;1638185;86;21127;-70
2022/01/19 18:58:57;;;;;;;18.57;13.00;;;;;;;1.09;77.24;100450.22;1650893;86;21661;-70
2022/01/19 19:01:25;;;;;;;19.15;13.05;;;;;;;1.08;77.26;100452.00;1646017;86;21133;-70
2022/01/19 19:03:51;;;;;;;19.10;12.82;;;;;;;1.08;77.26;100441.49;1641146;86;21191;-71
2022/01/19 19:06:17;;;;;;;17.52;12.33;;;;;;;1.06;77.26;100436.80;1644119;86;21589;-71
2022/01/19 19:08:43;;;;;;;20.43;12.35;;;;;;;1.06;77.27;100432.87;1640374;86;21063;-71
2022/01/19 19:11:33;;;;;;;17.55;11.38;;;;;;;1.05;77.28;100433.84;1643114;86;21054;-71
2022/01/19 19:13:47;;;;;;;16.32;11.60;;;;;;;1.06;77.32;100430.24;1635351;86;21703;-71
2022/01/19 19:16:13;;;;;;;22.30;13.95;;;;;;;1.07;77.35;100418.80;1642646;86;21192;-71
2022/01/19 19:18:39;;;;;;;22.48;13.60;;;;;;;1.07;77.36;100408.30;1633178;86;21725;-71
2022/01/19 19:21:06;;;;;;;22.40;14.33;;;;;;;1.06;77.36;100405.30;1636977;86;21099;-71
2022/01/19 19:23:32;;;;;;;23.85;14.28;;;;;;;1.06;77.39;100405.30;1638585;85;21062;-71
2022/01/19 19:25:58;;;;;;;20.32;12.90;;;;;;;1.04;77.40;100400.64;1638826;86;21692;-71
2022/01/19 19:28:23;;;;;;;20.77;12.95;;;;;;;1.03;77.41;100404.20;1638825;86;21060;-71
2022/01/19 19:30:50;;;;;;;20.62;13.22;;;;;;;1.03;77.44;100404.20;1634178;86;21539;-70
2022/01/19 19:33:17;;;;;;;17.60;13.43;;;;;;;1.04;77.46;100395.39;1640395;86;21020;-71
2022/01/19 19:35:43;;;;;;;19.40;13.05;;;;;;;1.05;77.50;100397.55;1637934;85;21367;-71
2022/01/19 19:38:09;;;;;;;20.00;12.93;;;;;;;1.04;77.52;100389.30;1626544;86;21062;-70
2022/01/19 19:40:37;;;;;;;19.48;13.20;;;;;;;1.03;77.52;100377.95;1623139;87;21098;-70
2022/01/19 19:43:03;;;;;;;20.70;14.43;;;;;;;1.03;77.56;100377.95;1620993;88;21089;-71
2022/01/19 19:45:29;;;;;;;18.62;12.47;;;;;;;1.02;77.57;100371.05;1626447;86;21098;-70
2022/01/19 19:47:55;;;;;;;23.32;13.62;;;;;;;1.04;77.58;100367.82;1621538;88;21131;-70
2022/01/19 19:50:24;;;;;;;22.30;14.07;;;;;;;1.06;77.58;100369.00;1624512;87;21107;-70
2022/01/19 19:52:57;;;;;;;19.23;11.47;;;;;;;1.07;77.61;100361.50;1611466;88;21189;-70
2022/01/19 19:55:20;;;;;;;21.68;13.38;;;;;;;1.08;77.64;100361.41;1626964;87;21085;-71
2022/01/19 19:57:47;;;;;;;20.65;13.35;;;;;;;1.09;77.66;100345.99;1601635;88;21534;-71
2022/01/19 20:00:16;;;;;;;21.95;13.85;;;;;;;1.11;77.66;100353.77;1624122;86;21035;-70
2022/01/19 20:02:42;;;;;;;24.75;14.80;;;;;;;1.11;77.68;100353.77;1631064;86;21084;-70
2022/01/19 20:05:09;;;;;;;25.97;16.05;;;;;;;1.13;77.72;100350.55;1637176;86;21162;-71
2022/01/19 20:07:35;;;;;;;21.30;14.45;;;;;;;1.14;77.74;100360.11;1627801;88;21022;-70
2022/01/19 20:10:03;;;;;;;27.48;16.17;;;;;;;1.14;77.76;100364.89;1619919;88;21792;-71
2022/01/19 20:12:29;;;;;;;20.12;13.28;;;;;;;1.15;77.77;100357.86;1626387;88;21142;-70
2022/01/19 20:14:57;;;;;;;18.73;12.40;;;;;;;1.17;77.79;100348.91;1626534;88;21105;-71
2022/01/19 20:17:23;;;;;;;19.45;13.18;;;;;;;1.18;77.79;100350.59;1627469;88;22171;-70
2022/01/19 20:19:49;;;;;;;19.87;13.35;;;;;;;1.20;77.85;100338.17;1632976;86;21372;-70
2022/01/19 20:22:15;;;;;;;18.17;12.63;;;;;;;1.23;77.86;100329.25;1628713;86;21106;-70
2022/01/19 20:24:41;;;;;;;22.27;13.32;;;;;;;1.24;77.85;100327.81;1622680;87;21063;-70
2022/01/19 20:27:07;;;;;;;23.38;13.32;;;;;;;1.25;77.88;100325.56;1616718;88;20939;-71
2022/01/19 20:29:33;;;;;;;20.00;13.53;;;;;;;1.28;77.90;100325.33;1601892;88;21139;-71
2022/01/19 20:31:59;;;;;;;20.05;12.85;;;;;;;1.31;77.91;100319.00;1629528;86;22270;-70
2022/01/19 20:34:26;;;;;;;22.00;12.95;;;;;;;1.31;77.91;100315.91;1631952;86;21199;-71